Latest Coastal Weather Observations for McCluer Island

IDD60701

Issued at 2:01 am CST Tuesday 22 May 2018 (issued every 10 minutes, with the page automatically refreshed every 10 minutes)

About coastal observations | Map of coastal stations | Coastal observations for NT | Marine services | Other Formats
Station Details ID: 014274 Name: MCCLUER ISLAND Lat: -11.05 Lon: 132.98 Height: 1.4 m
Data from the previous 72 hours. | See also: Recent months at McCluer Island
Date/Time
CST
Temp
°C
Wind Pressure Rain since
9am
mm
Weather Cloud Vis
km
Sea
Height
m
Swell
Dir  Spd
kts
Gust
kts
hPa Trend Height
m
Period
s
Dir
22/02:00am 26.2 SE 19 27 1011.5 - 0.0 - - - - - - -
22/01:36am 26.4 ESE 21 31 1011.7 - 0.0 - - - - - - -
22/01:30am 26.5 SE 22 30 1011.7 - 0.0 - - - - - - -
22/01:23am 26.5 SE 20 30 1011.7 - 0.0 - - - - - - -
22/01:00am 26.9 ESE 20 26 1011.9 - 0.0 - - - - - - -
22/12:38am 26.9 SE 17 27 1012.0 - 0.0 - - - - - - -
22/12:30am 27.1 SE 18 27 1012.0 - 0.0 - - - - - - -
22/12:00am 27.3 SE 17 27 1012.2 - 0.0 - - - - - - -
 
Date/Time
CST
Temp
°C
Wind Pressure Rain since
9am
mm
Weather Cloud Vis
km
Sea
Height
m
Swell
Dir  Spd
kts
Gust
kts
hPa Trend Height
m
Period
s
Dir
21/11:57pm 27.3 SE 17 27 1012.2 - 0.0 - - - - - - -
21/11:30pm 27.3 ESE 14 18 1012.4 - 0.0 - - - - - - -
21/11:00pm 27.5 ESE 15 20 1012.4 - 0.0 - - - - - - -
21/10:30pm 27.8 ESE 16 23 1012.6 - 0.0 - - - - - - -
21/10:00pm 27.4 ESE 14 18 1012.6 - 0.0 - - - - - - -
21/09:30pm 27.3 ESE 12 15 1012.7 - 0.0 - - - - - - -
21/09:00pm 27.3 ESE 12 15 1012.6 - 0.0 - - - - - - -
21/08:30pm 27.3 ESE 11 14 1012.4 - 0.0 - - - - - - -
21/08:00pm 27.4 ESE 10 13 1012.1 - 0.0 - - - - - - -
21/07:30pm 27.5 ESE 14 17 1011.7 - 0.0 - - - - - - -
21/07:00pm 27.6 E 14 17 1011.6 - 0.0 - - - - - - -
21/06:30pm 27.6 E 15 18 1011.3 - 0.0 - - - - - - -
21/06:00pm 27.7 E 17 20 1010.9 - 0.0 - - - - - - -
21/05:30pm 27.8 E 16 18 1010.6 - 0.0 - - - - - - -
21/05:00pm 27.7 E 16 19 1010.3 - 0.0 - - - - - - -
21/04:30pm 27.8 E 16 19 1010.0 - 0.0 - - - - - - -
21/04:00pm 27.9 E 18 20 1010.0 - 0.0 - - - - - - -
21/03:30pm 27.8 E 20 23 1009.9 - 0.0 - - - - - - -
21/03:00pm 27.7 E 20 24 1009.9 - 0.0 - - - - - - -
21/02:30pm 27.8 E 21 24 1010.5 - 0.0 - - - - - - -
21/02:00pm 27.6 E 22 26 1010.9 - 0.0 - - - - - - -
21/01:30pm 27.6 E 21 27 1011.3 - 0.0 - - - - - - -
21/01:00pm 27.3 E 23 26 1011.5 - 0.0 - - - - - - -
21/12:30pm 27.6 ESE 22 26 1011.7 - 0.0 - - - - - - -
21/12:00pm 27.4 ESE 22 27 1011.9 - 0.0 - - - - - - -
21/11:30am 27.1 ESE 22 26 1012.4 - 0.0 - - - - - - -
21/11:00am 27.2 ESE 23 26 1012.8 - 0.0 - - - - - - -
21/10:30am 27.3 ESE 22 27 1012.7 - 0.0 - - - - - - -
21/10:00am 26.9 ESE 22 27 1012.6 - 0.0 - - - - - - -
21/09:30am 27.0 ESE 20 26 1012.8 - 0.0 - - - - - - -
21/09:00am 27.5 SE 18 26 1012.3 - 0.0 - - - - - - -
21/08:30am 26.8 SE 19 26 1012.0 - 0.0 - - - - - - -
21/08:00am 26.0 SE 16 20 1011.8 - 0.0 - - - - - - -
21/07:30am 25.6 SE 12 18 1011.4 - 0.0 - - - - - - -
21/07:00am 25.0 ESE 16 22 1010.9 - 0.0 - - - - - - -
21/06:30am 25.0 SE 16 25 1010.7 - 0.0 - - - - - - -
21/06:23am 24.9 SE 15 25 1010.7 - 0.0 - - - - - - -
21/06:00am 24.9 SE 13 20 1010.7 - 0.0 - - - - - - -
21/05:30am 25.2 SE 15 21 1010.6 - 0.0 - - - - - - -
21/05:00am 25.2 ESE 14 19 1010.5 - 0.0 - - - - - - -
21/04:30am 25.3 SE 14 19 1010.2 - 0.0 - - - - - - -
21/04:00am 25.5 SE 15 21 1010.5 - 0.0 - - - - - - -
21/03:30am 25.9 SE 17 22 1011.0 - 0.0 - - - - - - -
21/03:00am 26.1 ESE 19 25 1011.0 - 0.0 - - - - - - -
21/02:30am 26.3 SE 17 24 1011.2 - 0.0 - - - - - - -
21/02:00am 26.7 SE 15 22 1011.4 - 0.0 - - - - - - -
21/01:30am 26.6 SE 12 17 1011.9 - 0.0 - - - - - - -
21/01:00am 27.0 SE 15 21 1012.1 - 0.0 - - - - - - -
21/12:30am 26.9 SE 15 22 1012.2 - 0.0 - - - - - - -
21/12:00am 27.1 ESE 12 17 1012.4 - 0.0 - - - - - - -
 
Date/Time
CST
Temp
°C
Wind Pressure Rain since
9am
mm
Weather Cloud Vis
km
Sea
Height
m
Swell
Dir  Spd
kts
Gust
kts
hPa Trend Height
m
Period
s
Dir
20/11:30pm 26.8 ESE 9 12 1012.5 - 0.0 - - - - - - -
20/11:00pm 26.7 ESE 8 11 1012.6 - 0.0 - - - - - - -
20/10:30pm 26.4 SE 6 8 1012.6 - 0.0 - - - - - - -
20/10:00pm 26.8 SE 7 8 1012.4 - 0.0 - - - - - - -
20/09:30pm 27.0 ESE 9 11 1012.1 - 0.0 - - - - - - -
20/09:00pm 27.3 ESE 10 12 1012.0 - 0.0 - - - - - - -
20/08:30pm 27.4 ESE 11 14 1011.4 - 0.0 - - - - - - -
20/08:00pm 27.6 ESE 13 16 1011.0 - 0.0 - - - - - - -
20/07:30pm 27.4 ESE 13 18 1010.4 - 0.0 - - - - - - -
20/07:00pm 27.4 ESE 15 18 1010.1 - 0.0 - - - - - - -
20/06:30pm 27.6 ESE 17 19 1009.8 - 0.0 - - - - - - -
20/06:00pm 27.9 ESE 18 21 1009.7 - 0.0 - - - - - - -
20/05:30pm 27.6 ESE 19 22 1009.4 - 0.0 - - - - - - -
20/05:00pm 27.6 ESE 19 22 1009.1 - 0.0 - - - - - - -
20/04:30pm 27.6 ESE 22 25 1008.9 - 0.0 - - - - - - -
20/04:00pm 27.8 ESE 22 27 1009.1 - 0.0 - - - - - - -
20/03:30pm 27.8 ESE 21 25 1009.1 - 0.0 - - - - - - -
20/03:00pm 27.8 ESE 21 26 1009.3 - 0.0 - - - - - - -
20/02:30pm 27.6 ESE 23 27 1009.4 - 0.0 - - - - - - -
20/02:00pm 27.7 ESE 23 29 1009.8 - 0.0 - - - - - - -
20/01:30pm 27.2 ESE 25 30 1009.9 - 0.0 - - - - - - -
20/01:00pm 27.5 ESE 25 30 1010.1 - 0.0 - - - - - - -
20/12:30pm 27.8 ESE 27 32 1010.3 - 0.0 - - - - - - -
20/12:00pm 27.1 ESE 26 31 1010.8 - 0.0 - - - - - - -
20/11:30am 26.7 ESE 26 30 1011.4 - 0.0 - - - - - - -
20/11:00am 26.8 ESE 27 32 1011.7 - 0.0 - - - - - - -
20/10:30am 26.7 ESE 24 27 1011.7 - 0.0 - - - - - - -
20/10:00am 26.7 ESE 22 25 1012.0 - 0.0 - - - - - - -
20/09:30am 26.6 ESE 18 27 1011.9 - 0.0 - - - - - - -
20/09:22am 26.7 ESE 17 27 1011.8 - 0.0 - - - - - - -
20/09:00am 26.2 ESE 16 24 1011.7 - 0.0 - - - - - - -
20/08:30am 25.7 SE 16 23 1011.4 - 0.0 - - - - - - -
20/08:00am 25.4 SE 16 24 1011.1 - 0.0 - - - - - - -
20/07:30am 25.7 SE 16 23 1011.1 - 0.0 - - - - - - -
20/07:00am 24.8 SE 13 19 1010.8 - 0.0 - - - - - - -
20/06:30am 25.1 SE 15 21 1010.5 - 0.0 - - - - - - -
20/06:00am 25.2 SE 15 23 1010.2 - 0.0 - - - - - - -
20/05:30am 25.3 ESE 16 24 1010.0 - 0.0 - - - - - - -
20/05:00am 25.2 ESE 13 19 1010.0 - 0.0 - - - - - - -
20/04:30am 25.1 SE 13 19 1009.8 - 0.0 - - - - - - -
20/04:00am 25.4 SE 17 23 1009.7 - 0.0 - - - - - - -
20/03:30am 25.8 SE 15 19 1009.7 - 0.0 - - - - - - -
20/03:00am 25.9 SE 13 20 1009.9 - 0.0 - - - - - - -
20/02:30am 26.0 SE 14 20 1010.0 - 0.0 - - - - - - -
20/02:00am 26.0 SE 14 21 1010.2 - 0.0 - - - - - - -
20/01:30am 26.4 SE 13 19 1010.6 - 0.0 - - - - - - -
20/01:00am 26.8 SE 15 20 1010.9 - 0.0 - - - - - - -
20/12:30am 26.7 SE 14 23 1011.2 - 0.0 - - - - - - -
20/12:00am 27.2 SE 13 19 1011.4 - 0.0 - - - - - - -
 
Date/Time
CST
Temp
°C
Wind Pressure Rain since
9am
mm
Weather Cloud Vis
km
Sea
Height
m
Swell
Dir  Spd
kts
Gust
kts
hPa Trend Height
m
Period
s
Dir
19/11:30pm 27.1 ESE 11 14 1011.6 - 0.0 - - - - - - -
19/11:00pm 26.8 ESE 10 13 1011.8 - 0.0 - - - - - - -
19/10:30pm 26.9 ESE 9 12 1011.8 - 0.0 - - - - - - -
19/10:00pm 26.8 ESE 10 12 1011.7 - 0.0 - - - - - - -
19/09:30pm 27.2 ESE 12 14 1011.4 - 0.0 - - - - - - -
19/09:00pm 27.4 ESE 12 14 1011.2 - 0.0 - - - - - - -
19/08:30pm 27.4 E 14 16 1011.2 - 0.0 - - - - - - -
19/08:00pm 27.2 E 13 15 1011.0 - 0.0 - - - - - - -
19/07:30pm 27.1 E 13 15 1010.6 - 0.0 - - - - - - -
19/07:00pm 27.1 E 14 17 1010.2 - 0.0 - - - - - - -
19/06:30pm 27.0 E 14 16 1009.9 - 0.0 - - - - - - -
19/06:00pm 26.9 ESE 14 17 1009.8 - 0.0 - - - - - - -
19/05:30pm 27.2 ESE 16 18 1009.4 - 0.0 - - - - - - -
19/05:00pm 26.8 ESE 18 21 1009.0 - 0.0 - - - - - - -
19/04:30pm 27.3 E 18 21 1008.9 - 0.0 - - - - - - -
19/04:00pm 27.2 E 19 23 1008.9 - 0.0 - - - - - - -
19/03:30pm 27.4 E 19 23 1008.8 - 0.0 - - - - - - -
19/03:00pm 27.4 ESE 21 25 1008.9 - 0.0 - - - - - - -
19/02:30pm 27.5 ESE 20 24 1009.0 - 0.0 - - - - - - -
19/02:00pm 28.1 ESE 20 23 1009.3 - 0.0 - - - - - - -
19/01:30pm 28.2 ESE 21 27 1009.4 - 0.0 - - - - - - -
19/01:00pm 28.0 ESE 20 26 1009.7 - 0.0 - - - - - - -
19/12:30pm 28.5 ESE 20 27 1010.1 - 0.0 - - - - - - -
19/12:00pm 27.4 ESE 24 29 1010.5 - 0.0 - - - - - - -
19/11:30am 27.8 ESE 23 30 1010.9 - 0.0 - - - - - - -
19/11:00am 27.7 ESE 23 31 1011.2 - 0.0 - - - - - - -
19/10:30am 27.2 ESE 24 30 1011.5 - 0.0 - - - - - - -
19/10:00am 26.3 ESE 25 31 1011.7 - 0.0 - - - - - - -
19/09:30am 26.4 ESE 22 30 1011.5 - 0.0 - - - - - - -
19/09:00am 26.8 ESE 22 31 1011.4 - 0.0 - - - - - - -
19/08:46am 26.5 ESE 21 31 1011.3 - 0.0 - - - - - - -
19/08:30am 26.3 ESE 20 27 1011.3 - 0.0 - - - - - - -
19/08:15am 26.2 ESE 20 30 1011.1 - 0.0 - - - - - - -
19/08:00am 25.8 ESE 20 28 1011.1 - 0.0 - - - - - - -
19/07:30am 25.6 ESE 23 29 1010.7 - 0.0 - - - - - - -
19/07:15am 25.6 ESE 21 31 1010.7 - 0.0 - - - - - - -
19/07:00am 25.4 ESE 20 29 1010.5 - 0.0 - - - - - - -
19/06:30am 25.3 ESE 22 28 1010.1 - 0.0 - - - - - - -
19/06:00am 25.0 ESE 21 28 1009.7 - 0.0 - - - - - - -
19/05:30am 25.2 ESE 21 26 1009.7 - 0.0 - - - - - - -
19/05:00am 24.7 ESE 22 29 1009.5 - 0.0 - - - - - - -
19/04:30am 24.4 ESE 22 28 1009.6 - 0.0 - - - - - - -
19/04:00am 24.7 SE 19 27 1009.7 - 0.0 - - - - - - -
19/03:30am 24.7 SE 19 26 1009.9 - 0.0 - - - - - - -
19/03:00am 24.8 SE 19 31 1010.0 - 0.0 - - - - - - -
19/02:54am 24.7 SE 17 27 1010.1 - 0.0 - - - - - - -
19/02:30am 24.9 SE 19 25 1010.1 - 0.0 - - - - - - -

Other Formats:

Comma delimited format used in spreadsheet applications
http://www.bom.gov.au/fwo/IDD60701/IDD60701.94135.axf

JavaScript Object Notation format (JSON) in row-major order
http://www.bom.gov.au/fwo/IDD60701/IDD60701.94135.json